Time;durP1;ratioP1;P1;durP2;ratioP2;P2;SDS_P1;SDS_P2;PMS_P1;PMS_P2;Temp;Humidity;BMP_temperature;BMP_pressure;BME280_temperature;BME280_humidity;BME280_pressure;Samples;Min_cycle;Max_cycle;Signal;HPM_P1;HPM_P2
2022/12/27 00:01:48;;;;;;;;;;;;;;;5.08;100.00;97338.34;5075684;28;19956;-74
2022/12/27 00:04:13;;;;;;;;;;;;;;;5.08;100.00;97337.50;5075667;28;20469;-74
2022/12/27 00:06:39;;;;;;;;;;;;;;;5.00;100.00;97333.13;5075805;28;20323;-74
2022/12/27 00:09:05;;;;;;;;;;;;;;;5.00;100.00;97332.31;5058745;28;19946;-74
2022/12/27 00:11:31;;;;;;;;;;;;;;;4.97;100.00;97327.41;5075755;28;20359;-73
2022/12/27 00:13:58;;;;;;;;;;;;;;;4.93;100.00;97336.50;5075453;28;19957;-73
2022/12/27 00:16:24;;;;;;;;;;;;;;;4.84;100.00;97335.69;5075572;28;20327;-73
2022/12/27 00:18:51;;;;;;;;;;;;;;;4.84;100.00;97346.09;5075592;28;19984;-74
2022/12/27 00:21:17;;;;;;;;;;;;;;;4.80;100.00;97336.97;5075253;28;19954;-73
2022/12/27 00:23:44;;;;;;;;;;;;;;;4.78;100.00;97354.50;5075449;28;19961;-74
2022/12/27 00:26:12;;;;;;;;;;;;;;;4.71;100.00;97348.34;5075377;28;19953;-73
2022/12/27 00:28:38;;;;;;;;;;;;;;;4.64;100.00;97348.13;5075505;28;20417;-73
2022/12/27 00:31:07;;;;;;;;;;;;;;;4.58;100.00;97349.59;5075222;28;20050;-73
2022/12/27 00:33:33;;;;;;;;;;;;;;;4.54;100.00;97353.47;5075048;28;19963;-74
2022/12/27 00:36:00;;;;;;;;;;;;;;;4.48;100.00;97347.13;5075274;28;20429;-73
2022/12/27 00:38:26;;;;;;;;;;;;;;;4.47;100.00;97342.06;5075084;28;20023;-73
2022/12/27 00:40:52;;;;;;;;;;;;;;;4.42;100.00;97354.72;5075417;28;19958;-73
2022/12/27 00:43:18;;;;;;;;;;;;;;;4.40;100.00;97348.88;5074820;28;20015;-73
2022/12/27 00:45:44;;;;;;;;;;;;;;;4.36;100.00;97356.16;5074912;28;20041;-73
2022/12/27 00:48:10;;;;;;;;;;;;;;;4.32;100.00;97354.84;5074983;28;20422;-73
2022/12/27 00:50:37;;;;;;;;;;;;;;;4.20;100.00;97349.13;5074530;28;19951;-73
2022/12/27 00:53:03;;;;;;;;;;;;;;;4.14;100.00;97354.94;5074884;28;19957;-73
2022/12/27 00:55:29;;;;;;;;;;;;;;;4.09;100.00;97364.13;5074707;28;19953;-73
2022/12/27 00:57:55;;;;;;;;;;;;;;;4.13;100.00;97365.47;5075051;28;19960;-73
2022/12/27 01:00:21;;;;;;;;;;;;;;;4.15;100.00;97369.53;5074493;28;19957;-73
2022/12/27 01:02:47;;;;;;;;;;;;;;;4.11;100.00;97370.00;5074635;28;20023;-73
2022/12/27 01:05:13;;;;;;;;;;;;;;;4.04;100.00;97377.59;5074875;28;19971;-73
2022/12/27 01:07:38;;;;;;;;;;;;;;;3.94;100.00;97363.91;5074425;28;20003;-74
2022/12/27 01:10:05;;;;;;;;;;;;;;;3.88;100.00;97382.66;5074616;28;20300;-73
2022/12/27 01:12:31;;;;;;;;;;;;;;;3.82;100.00;97368.50;5074658;28;19964;-73
2022/12/27 01:14:56;;;;;;;;;;;;;;;3.78;100.00;97385.34;5074356;28;19994;-73
2022/12/27 01:17:22;;;;;;;;;;;;;;;3.77;100.00;97383.72;5056792;28;19965;-73
2022/12/27 01:19:48;;;;;;;;;;;;;;;3.73;100.00;97380.63;5073942;28;19957;-73
2022/12/27 01:22:14;;;;;;;;;;;;;;;3.69;100.00;97392.25;5074267;28;19966;-73
2022/12/27 01:24:40;;;;;;;;;;;;;;;3.67;100.00;97396.78;5074128;28;19961;-73
2022/12/27 01:27:06;;;;;;;;;;;;;;;3.64;100.00;97404.88;5074442;28;19984;-73
2022/12/27 01:29:32;;;;;;;;;;;;;;;3.62;100.00;97407.63;5073939;28;19951;-74
2022/12/27 01:31:57;;;;;;;;;;;;;;;3.61;100.00;97423.31;5056378;28;19959;-73
2022/12/27 01:34:23;;;;;;;;;;;;;;;3.59;100.00;97428.69;5074363;28;19994;-73
2022/12/27 01:36:49;;;;;;;;;;;;;;;3.58;100.00;97428.81;5073834;28;20027;-73
2022/12/27 01:39:15;;;;;;;;;;;;;;;3.58;100.00;97440.00;5074417;28;19970;-73
2022/12/27 01:44:42;;;;;;;;;;;;;;;3.56;100.00;97452.31;5073979;28;19960;-73
2022/12/27 01:47:11;;;;;;;;;;;;;;;3.55;100.00;97450.69;5059407;28;20328;-73
2022/12/27 01:50:03;;;;;;;;;;;;;;;3.54;100.00;97450.84;5074198;28;19952;-73
2022/12/27 01:52:32;;;;;;;;;;;;;;;3.50;100.00;97458.09;5070668;28;19958;-73
2022/12/27 01:55:01;;;;;;;;;;;;;;;3.45;100.00;97460.31;5073495;28;20301;-73
2022/12/27 01:57:28;;;;;;;;;;;;;;;3.39;100.00;97453.94;5073829;28;19948;-73
2022/12/27 01:59:54;;;;;;;;;;;;;;;3.33;100.00;97462.31;5073586;28;20437;-73
2022/12/27 02:02:21;;;;;;;;;;;;;;;3.29;100.00;97466.16;5073638;28;19967;-72
2022/12/27 02:04:47;;;;;;;;;;;;;;;3.24;100.00;97470.97;5073690;28;19960;-73
2022/12/27 02:07:13;;;;;;;;;;;;;;;3.19;100.00;97475.75;5073469;28;19963;-73
2022/12/27 02:09:48;;;;;;;;;;;;;;;3.14;100.00;97483.97;5073462;28;19961;-73
2022/12/27 02:12:15;;;;;;;;;;;;;;;3.09;100.00;97486.19;5073617;28;19950;-73
2022/12/27 02:14:42;;;;;;;;;;;;;;;3.05;100.00;97490.84;5073637;28;19962;-73
2022/12/27 02:17:13;;;;;;;;;;;;;;;3.01;100.00;97506.84;5073821;28;19951;-72
2022/12/27 02:19:39;;;;;;;;;;;;;;;2.95;100.00;97510.81;5073394;28;19953;-73
2022/12/27 02:22:07;;;;;;;;;;;;;;;2.91;100.00;97506.88;5073567;28;19979;-73
2022/12/27 02:24:48;;;;;;;;;;;;;;;2.87;100.00;97509.91;5073354;28;19967;-73
2022/12/27 02:27:30;;;;;;;;;;;;;;;2.84;100.00;97516.19;5073920;28;19962;-72
2022/12/27 02:30:06;;;;;;;;;;;;;;;2.82;100.00;97515.50;5062075;28;20300;-72
2022/12/27 02:32:36;;;;;;;;;;;;;;;2.80;100.00;97518.22;5064215;28;19950;-72
2022/12/27 02:35:22;;;;;;;;;;;;;;;2.80;100.00;97517.44;5077902;28;20325;-72
2022/12/27 02:37:52;;;;;;;;;;;;;;;2.78;100.00;97511.56;5077250;28;19973;-73
2022/12/27 02:54:26;;;;;;;;;;;;;;;2.57;100.00;97512.59;5066712;28;19963;-72
2022/12/27 02:57:07;;;;;;;;;;;;;;;2.55;100.00;97518.88;5077092;28;19964;-72
2022/12/27 03:05:41;;;;;;;;;;;;;;;2.38;100.00;97529.00;5076889;28;19949;-72
2022/12/27 03:08:18;;;;;;;;;;;;;;;2.35;100.00;97531.03;5067448;28;19953;-72
2022/12/27 03:16:24;;;;;;;;;;;;;;;2.23;100.00;97527.78;5077170;28;20324;-72
2022/12/27 03:19:09;;;;;;;;;;;;;;;2.19;100.00;97535.00;5076462;28;19958;-73
2022/12/27 03:27:16;;;;;;;;;;;;;;;2.12;100.00;97538.28;5076840;28;19954;-73
2022/12/27 03:35:28;;;;;;;;;;;;;;;2.01;100.00;97540.06;5076600;28;19959;-73
2022/12/27 03:38:03;;;;;;;;;;;;;;;1.99;100.00;97546.31;5076153;28;20334;-73
2022/12/27 03:40:29;;;;;;;;;;;;;;;1.95;100.00;97545.81;5076559;28;19950;-73
2022/12/27 03:43:11;;;;;;;;;;;;;;;1.93;100.00;97539.94;5076112;28;20421;-73
2022/12/27 03:48:36;;;;;;;;;;;;;;;1.83;100.00;97537.34;5071038;28;20431;-73
2022/12/27 03:51:04;;;;;;;;;;;;;;;1.81;100.00;97538.44;5076076;28;19956;-73
2022/12/27 03:53:30;;;;;;;;;;;;;;;1.77;100.00;97537.06;5075916;28;20028;-73
2022/12/27 03:55:56;;;;;;;;;;;;;;;1.75;100.00;97542.38;5076317;28;19959;-73
2022/12/27 03:58:22;;;;;;;;;;;;;;;1.73;100.00;97544.28;5057824;28;19974;-73
2022/12/27 04:00:48;;;;;;;;;;;;;;;1.70;100.00;97556.66;5076175;28;19963;-73
2022/12/27 04:03:14;;;;;;;;;;;;;;;1.67;100.00;97552.56;5075906;28;19969;-74
2022/12/27 04:05:39;;;;;;;;;;;;;;;1.65;100.00;97557.06;5075562;28;19994;-73
2022/12/27 04:35:29;;;;;;;;;;;;;;;1.38;100.00;97553.31;5075653;28;19953;-73
2022/12/27 04:37:55;;;;;;;;;;;;;;;1.37;100.00;97548.31;5053675;28;20050;-73
2022/12/27 04:56:58;;;;;;;;;;;;;;;1.20;100.00;97560.91;5054757;28;19952;-72
2022/12/27 05:02:28;;;;;;;;;;;;;;;1.15;100.00;97552.72;5044682;28;20331;-72
2022/12/27 05:04:54;;;;;;;;;;;;;;;1.16;100.00;97567.28;5052514;28;20058;-74
2022/12/27 05:15:33;;;;;;;;;;;;;;;1.09;100.00;97573.09;5054364;28;19959;-74
2022/12/27 05:17:59;;;;;;;;;;;;;;;1.09;100.00;97576.53;5054579;28;20413;-73
2022/12/27 05:20:25;;;;;;;;;;;;;;;1.07;100.00;97570.66;5054232;28;20021;-73
2022/12/27 05:25:39;;;;;;;;;;;;;;;1.05;100.00;97579.47;5054133;28;20331;-73
2022/12/27 05:28:06;;;;;;;;;;;;;;;1.05;100.00;97571.72;5054248;28;19964;-73
2022/12/27 05:30:33;;;;;;;;;;;;;;;1.04;100.00;97575.25;5054033;28;19950;-73
2022/12/27 05:32:59;;;;;;;;;;;;;;;1.02;100.00;97581.38;5054286;28;19960;-73
2022/12/27 05:35:25;;;;;;;;;;;;;;;1.03;100.00;97579.63;5052786;28;20011;-74
2022/12/27 05:37:54;;;;;;;;;;;;;;;1.02;100.00;97583.13;5071750;28;20036;-73
2022/12/27 05:40:21;;;;;;;;;;;;;;;0.99;100.00;97573.88;5074001;28;19955;-73
2022/12/27 05:42:47;;;;;;;;;;;;;;;0.99;100.00;97584.22;5073832;28;20397;-73
2022/12/27 05:45:13;;;;;;;;;;;;;;;1.00;100.00;97593.59;5074472;28;20036;-72
2022/12/27 05:47:39;;;;;;;;;;;;;;;0.98;100.00;97590.31;5073808;28;20395;-73
2022/12/27 05:50:05;;;;;;;;;;;;;;;0.97;100.00;97586.13;5073747;28;19987;-73
2022/12/27 05:52:31;;;;;;;;;;;;;;;0.96;100.00;97591.41;5074018;28;20368;-72
2022/12/27 05:54:57;;;;;;;;;;;;;;;0.96;100.00;97586.22;5055892;28;19953;-74
2022/12/27 05:57:23;;;;;;;;;;;;;;;0.94;100.00;97586.34;5073740;28;19949;-73
2022/12/27 05:59:49;;;;;;;;;;;;;;;0.95;100.00;97592.38;5073744;28;20048;-73
2022/12/27 06:02:14;;;;;;;;;;;;;;;0.93;100.00;97597.66;5073681;28;20048;-73
2022/12/27 06:04:40;;;;;;;;;;;;;;;0.91;100.00;97596.97;5073306;28;20012;-73
2022/12/27 06:07:08;;;;;;;;;;;;;;;0.89;100.00;97604.00;5072962;28;19964;-73
2022/12/27 06:09:34;;;;;;;;;;;;;;;0.86;100.00;97603.44;5073665;28;19948;-73
2022/12/27 06:12:00;;;;;;;;;;;;;;;0.85;100.00;97601.81;5073780;28;20011;-72
2022/12/27 06:14:26;;;;;;;;;;;;;;;0.84;100.00;97600.16;5073762;28;20000;-73
2022/12/27 06:16:51;;;;;;;;;;;;;;;0.83;100.00;97609.69;5073185;28;19959;-73
2022/12/27 06:19:18;;;;;;;;;;;;;;;0.82;100.00;97613.22;5073454;28;19956;-72
2022/12/27 06:21:43;;;;;;;;;;;;;;;0.80;100.00;97609.97;5073324;28;19961;-72
2022/12/27 06:24:09;;;;;;;;;;;;;;;0.77;100.00;97616.16;5073313;28;19968;-74
2022/12/27 06:26:35;;;;;;;;;;;;;;;0.75;100.00;97612.09;5074041;28;20316;-73
2022/12/27 06:29:01;;;;;;;;;;;;;;;0.72;100.00;97605.41;5073445;28;19959;-73
2022/12/27 06:31:27;;;;;;;;;;;;;;;0.72;100.00;97614.94;5073422;28;19964;-73
2022/12/27 06:33:53;;;;;;;;;;;;;;;0.70;100.00;97614.25;5072877;28;20445;-73
2022/12/27 06:36:21;;;;;;;;;;;;;;;0.68;100.00;97616.13;5072608;28;20346;-73
2022/12/27 06:38:47;;;;;;;;;;;;;;;0.68;100.00;97606.63;5073368;28;20316;-73
2022/12/27 06:41:16;;;;;;;;;;;;;;;0.68;100.00;97608.38;5073572;28;19951;-72
2022/12/27 06:43:42;;;;;;;;;;;;;;;0.68;100.00;97611.78;5073383;28;21293;-73
2022/12/27 06:46:12;;;;;;;;;;;;;;;0.68;100.00;97618.72;5073612;28;19952;-73
2022/12/27 06:48:38;;;;;;;;;;;;;;;0.68;100.00;97618.72;5073295;28;19946;-73
2022/12/27 06:51:05;;;;;;;;;;;;;;;0.66;100.00;97624.00;5073486;28;20437;-73
2022/12/27 06:53:31;;;;;;;;;;;;;;;0.65;100.00;97622.38;5073261;28;19949;-73
2022/12/27 06:55:57;;;;;;;;;;;;;;;0.63;100.00;97632.00;5073291;28;19992;-73
2022/12/27 06:58:22;;;;;;;;;;;;;;;0.61;100.00;97628.72;5073158;28;19963;-73
2022/12/27 07:00:48;;;;;;;;;;;;;;;0.58;100.00;97624.63;5073222;28;19959;-73
2022/12/27 07:03:14;;;;;;;;;;;;;;;0.56;100.00;97629.09;5073424;28;19965;-73
2022/12/27 07:05:40;;;;;;;;;;;;;;;0.54;100.00;97630.97;5073632;28;20466;-73
2022/12/27 07:08:06;;;;;;;;;;;;;;;0.52;100.00;97629.47;5073270;28;19954;-73
2022/12/27 07:10:32;;;;;;;;;;;;;;;0.51;100.00;97636.41;5072929;28;20353;-73
2022/12/27 07:12:58;;;;;;;;;;;;;;;0.49;100.00;97640.88;5073031;28;19960;-72
2022/12/27 07:15:24;;;;;;;;;;;;;;;0.49;100.00;97637.47;5072887;28;19955;-73
2022/12/27 07:17:49;;;;;;;;;;;;;;;0.48;100.00;97643.56;5074936;28;19958;-73
2022/12/27 07:20:15;;;;;;;;;;;;;;;0.47;100.00;97642.75;5077121;28;19985;-73
2022/12/27 07:22:41;;;;;;;;;;;;;;;0.50;100.00;97650.22;5076376;28;19951;-73
2022/12/27 07:25:07;;;;;;;;;;;;;;;0.52;100.00;97648.34;5076487;28;19971;-73
2022/12/27 07:27:33;;;;;;;;;;;;;;;0.54;100.00;97651.63;5076365;28;19954;-73
2022/12/27 07:29:59;;;;;;;;;;;;;;;0.58;100.00;97654.78;5076490;28;19968;-73
2022/12/27 07:32:25;;;;;;;;;;;;;;;0.60;100.00;97647.72;5076233;28;20062;-73
2022/12/27 07:34:51;;;;;;;;;;;;;;;0.62;100.00;97655.34;5076169;28;19957;-73
2022/12/27 07:37:17;;;;;;;;;;;;;;;0.65;100.00;97655.94;5076075;28;19979;-73
2022/12/27 07:39:43;;;;;;;;;;;;;;;0.66;100.00;97657.56;5058682;28;19988;-73
2022/12/27 07:42:09;;;;;;;;;;;;;;;0.69;100.00;97659.88;5076289;28;19951;-73
2022/12/27 07:44:35;;;;;;;;;;;;;;;0.74;100.00;97664.69;5076024;28;19971;-74
2022/12/27 07:47:01;;;;;;;;;;;;;;;0.76;100.00;97661.03;5075988;28;20322;-73
2022/12/27 07:49:27;;;;;;;;;;;;;;;0.84;100.00;97672.47;5075927;28;20050;-73
2022/12/27 07:51:53;;;;;;;;;;;;;;;0.88;100.00;97661.75;5075894;28;19959;-73
2022/12/27 07:54:18;;;;;;;;;;;;;;;0.91;100.00;97661.53;5075978;28;20380;-72
2022/12/27 07:56:44;;;;;;;;;;;;;;;0.94;100.00;97665.63;5075909;28;20005;-72
2022/12/27 07:59:11;;;;;;;;;;;;;;;0.96;100.00;97667.13;5076249;28;19959;-73
2022/12/27 08:04:22;;;;;;;;;;;;;;;1.01;100.00;97670.16;5075770;28;19972;-74
2022/12/27 08:06:48;;;;;;;;;;;;;;;1.06;100.00;97664.59;5075910;28;19967;-73
2022/12/27 08:09:16;;;;;;;;;;;;;;;1.11;100.00;97662.44;5075704;28;20479;-73
2022/12/27 08:11:41;;;;;;;;;;;;;;;1.21;100.00;97672.84;5075537;28;19947;-74
2022/12/27 08:14:07;;;;;;;;;;;;;;;1.37;100.00;97667.19;5075412;28;20015;-73
2022/12/27 08:16:33;;;;;;;;;;;;;;;1.60;100.00;97660.09;5075618;28;19949;-73
2022/12/27 08:18:59;;;;;;;;;;;;;;;1.89;100.00;97659.31;5076203;28;19955;-73
2022/12/27 08:21:25;;;;;;;;;;;;;;;2.17;100.00;97655.16;5075386;28;19997;-73
2022/12/27 08:23:51;;;;;;;;;;;;;;;2.40;100.00;97651.34;5075250;28;20320;-73
2022/12/27 08:26:17;;;;;;;;;;;;;;;2.59;100.00;97644.53;5057700;28;20044;-73
2022/12/27 08:28:42;;;;;;;;;;;;;;;2.75;100.00;97652.56;5074388;28;20009;-73
2022/12/27 08:31:09;;;;;;;;;;;;;;;2.93;100.00;97644.06;5074607;28;20055;-73
2022/12/27 08:33:35;;;;;;;;;;;;;;;3.07;100.00;97632.41;5075031;28;19959;-73
2022/12/27 08:36:05;;;;;;;;;;;;;;;3.20;100.00;97625.16;5075009;28;20392;-73
2022/12/27 08:38:31;;;;;;;;;;;;;;;3.31;100.00;97624.16;5075308;28;19953;-73
2022/12/27 08:40:57;;;;;;;;;;;;;;;3.43;100.00;97625.63;5074921;28;19957;-74
2022/12/27 08:43:23;;;;;;;;;;;;;;;3.55;100.00;97615.84;5075604;28;19958;-74
2022/12/27 08:45:49;;;;;;;;;;;;;;;3.65;100.00;97621.81;5075131;28;20051;-75
2022/12/27 08:48:15;;;;;;;;;;;;;;;3.74;100.00;97626.16;5074929;28;19957;-74
2022/12/27 08:50:41;;;;;;;;;;;;;;;3.84;100.00;97626.06;5074566;28;20390;-74
2022/12/27 08:53:07;;;;;;;;;;;;;;;3.90;100.00;97627.28;5074722;28;19947;-74
2022/12/27 08:55:33;;;;;;;;;;;;;;;3.95;100.00;97630.22;5074655;28;19959;-74
2022/12/27 08:58:00;;;;;;;;;;;;;;;3.96;100.00;97632.69;5075025;28;19954;-74
2022/12/27 09:00:26;;;;;;;;;;;;;;;4.00;96.91;97622.84;5074601;28;19948;-74
2022/12/27 09:02:52;;;;;;;;;;;;;;;4.01;99.37;97635.69;5074939;28;20313;-74
2022/12/27 09:05:19;;;;;;;;;;;;;;;4.11;99.67;97648.56;5074712;28;19969;-74
2022/12/27 09:07:45;;;;;;;;;;;;;;;4.13;99.68;97654.44;5074508;28;19966;-74
2022/12/27 09:10:11;;;;;;;;;;;;;;;4.16;99.40;97648.13;5073832;28;19952;-74
2022/12/27 09:12:37;;;;;;;;;;;;;;;4.19;98.75;97637.47;5074430;28;19984;-74
2022/12/27 09:15:03;;;;;;;;;;;;;;;4.21;99.32;97651.09;5056718;28;19976;-74
2022/12/27 09:17:29;;;;;;;;;;;;;;;4.24;98.27;97640.41;5073250;28;19976;-73
2022/12/27 09:19:55;;;;;;;;;;;;;;;4.27;96.87;97640.13;5074364;28;19960;-74
2022/12/27 09:22:21;;;;;;;;;;;;;;;4.21;97.46;97648.50;5074442;28;19950;-73
2022/12/27 09:24:47;;;;;;;;;;;;;;;4.20;96.01;97644.28;5074179;28;19965;-74
2022/12/27 09:27:13;;;;;;;;;;;;;;;4.05;95.23;97644.81;5074092;28;19963;-74
2022/12/27 09:29:38;;;;;;;;;;;;;;;3.93;94.46;97640.78;5074722;28;19954;-73
2022/12/27 09:32:04;;;;;;;;;;;;;;;3.83;97.12;97660.78;5074103;28;20179;-73
2022/12/27 09:34:30;;;;;;;;;;;;;;;3.79;96.00;97647.25;5073991;28;20041;-73
2022/12/27 09:36:56;;;;;;;;;;;;;;;3.81;99.80;97676.47;5073814;28;19975;-74
2022/12/27 09:39:22;;;;;;;;;;;;;;;3.95;100.00;97679.53;5074056;28;19957;-73
2022/12/27 09:42:00;;;;;;;;;;;;;;;4.07;100.00;97670.59;5074318;28;20013;-73
2022/12/27 09:44:42;;;;;;;;;;;;;;;4.22;99.92;97663.94;5073966;28;19963;-73
2022/12/27 09:47:16;;;;;;;;;;;;;;;4.27;96.35;97642.72;5073900;28;19954;-73
2022/12/27 09:49:44;;;;;;;;;;;;;;;4.34;98.86;97654.16;5074094;28;19951;-73
2022/12/27 09:52:19;;;;;;;;;;;;;;;4.39;99.98;97667.53;5073878;28;19954;-73
2022/12/27 09:54:53;;;;;;;;;;;;;;;4.38;96.97;97652.88;5073645;28;19959;-74
2022/12/27 09:57:23;;;;;;;;;;;;;;;4.32;97.57;97657.84;5073345;28;19949;-72
2022/12/27 09:59:51;;;;;;;;;;;;;;;4.22;97.92;97674.34;5073755;28;20337;-74
2022/12/27 10:02:21;;;;;;;;;;;;;;;4.06;97.57;97667.19;5073692;28;20315;-72
2022/12/27 10:04:48;;;;;;;;;;;;;;;3.99;98.69;97673.09;5073611;28;20431;-72
2022/12/27 10:07:20;;;;;;;;;;;;;;;3.94;98.97;97678.72;5073448;28;20405;-74
2022/12/27 10:09:53;;;;;;;;;;;;;;;3.85;97.98;97664.84;5073718;28;19957;-75
2022/12/27 10:12:25;;;;;;;;;;;;;;;3.72;98.11;97661.78;5073856;28;19948;-74
2022/12/27 10:15:09;;;;;;;;;;;;;;;3.75;100.00;97668.47;5073307;28;19958;-74
2022/12/27 10:17:42;;;;;;;;;;;;;;;3.86;100.00;97679.47;5058566;28;20441;-74
2022/12/27 10:20:16;;;;;;;;;;;;;;;4.05;100.00;97675.13;5073487;28;20354;-74
2022/12/27 10:22:43;;;;;;;;;;;;;;;4.22;98.09;97650.97;5073698;28;19946;-73
2022/12/27 10:25:10;;;;;;;;;;;;;;;4.26;96.16;97633.28;5073272;28;19963;-74
2022/12/27 10:27:37;;;;;;;;;;;;;;;4.35;98.43;97649.78;5055411;28;19953;-74
2022/12/27 10:30:13;;;;;;;;;;;;;;;4.38;94.43;97615.72;5073303;28;19967;-74
2022/12/27 10:32:39;;;;;;;;;;;;;;;4.35;95.32;97626.41;5072608;28;19952;-74
2022/12/27 10:35:05;;;;;;;;;;;;;;;4.27;95.81;97627.97;5073416;28;20004;-74
2022/12/27 10:37:31;;;;;;;;;;;;;;;4.22;95.05;97618.97;5073339;28;19981;-74
2022/12/27 10:40:03;;;;;;;;;;;;;;;4.27;98.57;97637.53;5073551;28;19961;-74
2022/12/27 10:42:36;;;;;;;;;;;;;;;4.37;99.28;97642.66;5073331;28;19951;-74
2022/12/27 10:45:20;;;;;;;;;;;;;;;4.53;96.85;97623.78;5073473;28;19962;-74
2022/12/27 10:47:46;;;;;;;;;;;;;;;4.69;98.30;97629.13;5073319;28;19950;-74
2022/12/27 10:50:12;;;;;;;;;;;;;;;4.80;98.66;97636.66;5073274;28;19960;-74
2022/12/27 10:52:38;;;;;;;;;;;;;;;4.87;95.30;97611.69;5075320;28;19957;-74
2022/12/27 10:55:05;;;;;;;;;;;;;;;4.94;96.42;97618.88;5077085;28;19949;-74
2022/12/27 10:57:34;;;;;;;;;;;;;;;5.01;97.84;97623.31;5077244;28;19948;-74
2022/12/27 11:00:13;;;;;;;;;;;;;;;5.08;96.02;97608.75;5077122;28;19991;-73
2022/12/27 11:02:48;;;;;;;;;;;;;;;5.12;95.37;97608.41;5076693;28;19958;-74
2022/12/27 11:05:22;;;;;;;;;;;;;;;5.19;96.90;97625.84;5077041;28;19975;-74
2022/12/27 11:07:48;;;;;;;;;;;;;;;5.29;96.86;97629.16;5069569;28;19953;-74
2022/12/27 11:10:16;;;;;;;;;;;;;;;5.39;95.50;97616.03;5076743;28;19954;-73
2022/12/27 11:13:01;;;;;;;;;;;;;;;5.37;93.86;97609.34;5076725;28;19949;-74
2022/12/27 11:15:32;;;;;;;;;;;;;;;5.39;97.15;97634.22;5076907;28;20396;-74
2022/12/27 11:18:09;;;;;;;;;;;;;;;5.46;95.98;97616.25;5076728;28;19961;-72
2022/12/27 11:20:39;;;;;;;;;;;;;;;5.45;94.03;97610.19;5067174;28;19955;-73
2022/12/27 11:23:08;;;;;;;;;;;;;;;5.47;96.60;97629.06;5076828;28;19945;-74
2022/12/27 11:25:34;;;;;;;;;;;;;;;5.44;95.35;97624.19;5075524;28;19968;-74
2022/12/27 11:28:05;;;;;;;;;;;;;;;5.44;95.23;97620.78;5076219;28;20419;-73
2022/12/27 11:30:33;;;;;;;;;;;;;;;5.43;94.74;97608.72;5058844;28;19948;-74
2022/12/27 11:33:16;;;;;;;;;;;;;;;5.38;97.20;97630.00;5076270;28;19953;-74
2022/12/27 11:35:48;;;;;;;;;;;;;;;5.26;95.29;97613.84;5066858;28;19949;-72
2022/12/27 11:38:25;;;;;;;;;;;;;;;5.29;98.44;97629.16;5058641;28;19961;-74
2022/12/27 11:41:01;;;;;;;;;;;;;;;5.42;99.04;97623.53;5062095;28;19965;-74
2022/12/27 11:43:31;;;;;;;;;;;;;;;5.59;99.45;97632.22;5076661;28;19947;-74
2022/12/27 11:45:59;;;;;;;;;;;;;;;5.75;98.14;97621.03;5075838;28;19973;-74
2022/12/27 11:48:37;;;;;;;;;;;;;;;5.72;94.06;97597.13;5075623;28;20423;-74
2022/12/27 11:51:22;;;;;;;;;;;;;;;5.72;93.39;97594.53;5075951;28;19957;-74
2022/12/27 11:54:07;;;;;;;;;;;;;;;5.73;94.31;97612.56;5041550;28;19954;-74
2022/12/27 11:56:38;;;;;;;;;;;;;;;5.72;94.50;97604.94;5076109;28;19950;-74
2022/12/27 11:59:22;;;;;;;;;;;;;;;5.67;93.20;97600.22;5075735;28;19961;-74
2022/12/27 12:02:07;;;;;;;;;;;;;;;5.67;95.74;97606.22;5075870;28;19959;-74
2022/12/27 12:04:33;;;;;;;;;;;;;;;5.70;97.48;97607.69;5074777;28;19962;-74
2022/12/27 12:07:17;;;;;;;;;;;;;;;5.73;94.94;97581.31;5075849;28;20404;-74
2022/12/27 12:09:52;;;;;;;;;;;;;;;5.78;97.60;97599.09;5075658;28;19947;-74
2022/12/27 12:12:24;;;;;;;;;;;;;;;5.84;95.08;97586.25;5075722;28;19951;-74
2022/12/27 12:15:08;;;;;;;;;;;;;;;5.83;92.54;97571.59;5075832;28;19960;-72
2022/12/27 12:17:52;;;;;;;;;;;;;;;5.88;94.91;97595.38;5057757;28;20322;-74
2022/12/27 12:20:33;;;;;;;;;;;;;;;5.96;94.19;97592.00;5075233;28;19952;-73
2022/12/27 12:23:08;;;;;;;;;;;;;;;6.07;95.72;97599.50;5067212;28;19956;-73
2022/12/27 12:26:03;;;;;;;;;;;;;;;6.20;93.34;97572.19;5075288;28;19955;-73
2022/12/27 12:28:48;;;;;;;;;;;;;;;6.36;95.19;97585.19;5075274;28;19963;-74
2022/12/27 12:31:22;;;;;;;;;;;;;;;6.48;93.95;97575.25;5075344;28;20324;-74
2022/12/27 12:34:00;;;;;;;;;;;;;;;6.56;89.61;97532.75;5075337;28;19952;-73
2022/12/27 12:36:45;;;;;;;;;;;;;;;6.57;88.80;97540.38;5065743;28;20491;-74
2022/12/27 12:39:31;;;;;;;;;;;;;;;6.57;88.20;97529.97;5075396;28;19958;-73
2022/12/27 12:42:03;;;;;;;;;;;;;;;6.57;85.86;97509.09;5061053;28;19962;-74
2022/12/27 12:44:44;;;;;;;;;;;;;;;6.53;87.05;97518.25;5074961;28;19963;-74
2022/12/27 12:47:16;;;;;;;;;;;;;;;6.52;84.82;97498.38;5075026;28;19953;-74
2022/12/27 12:49:42;;;;;;;;;;;;;;;6.49;87.23;97524.78;5075178;28;19950;-73
2022/12/27 12:52:34;;;;;;;;;;;;;;;6.42;85.65;97523.81;5074701;28;19973;-73
2022/12/27 12:55:00;;;;;;;;;;;;;;;6.35;87.68;97543.69;5051346;28;19955;-73
2022/12/27 12:57:46;;;;;;;;;;;;;;;6.28;87.11;97543.53;5074841;28;20028;-76
2022/12/27 13:00:21;;;;;;;;;;;;;;;6.23;88.07;97548.41;5033497;28;19969;-74
2022/12/27 13:02:46;;;;;;;;;;;;;;;6.20;86.99;97540.91;5074811;28;19952;-73
2022/12/27 13:05:26;;;;;;;;;;;;;;;6.15;85.82;97538.78;5074490;28;20050;-73
2022/12/27 13:08:01;;;;;;;;;;;;;;;6.12;86.18;97533.09;5074749;28;20403;-74
2022/12/27 13:10:42;;;;;;;;;;;;;;;6.08;85.49;97528.22;5074461;28;19959;-73
2022/12/27 13:13:17;;;;;;;;;;;;;;;6.07;87.79;97544.00;5074549;28;20326;-73
2022/12/27 13:15:58;;;;;;;;;;;;;;;6.09;87.61;97535.06;5074147;28;19945;-73
2022/12/27 13:18:39;;;;;;;;;;;;;;;6.12;88.88;97543.53;5074279;28;19959;-73
2022/12/27 13:21:13;;;;;;;;;;;;;;;6.16;87.91;97532.63;5074313;28;20427;-73
2022/12/27 13:23:52;;;;;;;;;;;;;;;6.17;86.03;97515.19;5074665;28;19950;-73
2022/12/27 13:26:22;;;;;;;;;;;;;;;6.17;87.66;97526.41;5066777;28;19978;-73
2022/12/27 13:28:53;;;;;;;;;;;;;;;6.18;88.32;97538.47;5074617;28;19954;-74
2022/12/27 13:31:27;;;;;;;;;;;;;;;6.19;87.07;97521.84;5074564;28;19955;-73
2022/12/27 13:34:05;;;;;;;;;;;;;;;6.20;86.60;97528.72;5074100;28;19956;-73
2022/12/27 13:36:40;;;;;;;;;;;;;;;6.19;83.17;97505.41;5073981;28;19972;-73
2022/12/27 13:39:11;;;;;;;;;;;;;;;6.14;87.69;97538.97;5074277;28;19959;-73
2022/12/27 13:41:44;;;;;;;;;;;;;;;6.12;88.50;97548.72;5073822;28;19958;-73
2022/12/27 13:44:10;;;;;;;;;;;;;;;6.07;86.33;97533.59;5074580;28;19953;-73
2022/12/27 13:46:54;;;;;;;;;;;;;;;5.99;87.95;97544.00;5073850;28;19963;-73
2022/12/27 13:49:39;;;;;;;;;;;;;;;5.95;90.93;97563.53;5074088;28;19958;-73
2022/12/27 13:52:23;;;;;;;;;;;;;;;5.93;90.92;97558.44;5062611;28;19952;-73
2022/12/27 13:54:58;;;;;;;;;;;;;;;5.90;88.49;97536.16;5056200;28;19961;-73
2022/12/27 13:57:53;;;;;;;;;;;;;;;5.86;88.53;97541.84;5060433;28;19955;-73
2022/12/27 14:00:20;;;;;;;;;;;;;;;5.83;90.86;97562.97;5019492;28;19956;-74
2022/12/27 14:03:00;;;;;;;;;;;;;;;5.79;91.40;97564.28;5056250;28;19957;-73
2022/12/27 14:05:45;;;;;;;;;;;;;;;5.75;91.50;97563.78;5073715;28;19973;-73
2022/12/27 14:08:24;;;;;;;;;;;;;;;5.74;90.54;97562.16;5073492;28;20325;-73
2022/12/27 14:10:50;;;;;;;;;;;;;;;5.70;93.14;97576.47;5074065;28;19956;-73
2022/12/27 14:13:27;;;;;;;;;;;;;;;5.68;91.66;97562.78;5073874;28;19959;-73
2022/12/27 14:16:03;;;;;;;;;;;;;;;5.64;93.66;97571.88;5073846;28;19954;-73
2022/12/27 14:18:29;;;;;;;;;;;;;;;5.60;93.14;97571.38;5073379;28;19953;-73
2022/12/27 14:21:00;;;;;;;;;;;;;;;5.56;89.77;97546.66;5073620;28;20458;-74
2022/12/27 14:23:39;;;;;;;;;;;;;;;5.53;90.94;97553.97;5073376;28;19954;-73
2022/12/27 14:26:17;;;;;;;;;;;;;;;5.47;92.92;97571.03;5073447;28;19966;-74
2022/12/27 14:28:58;;;;;;;;;;;;;;;5.44;90.58;97550.53;5077667;28;19952;-74
2022/12/27 14:31:33;;;;;;;;;;;;;;;5.37;91.85;97568.53;5077744;28;20313;-74
2022/12/27 14:34:18;;;;;;;;;;;;;;;5.34;94.13;97578.47;5077491;28;20322;-73
2022/12/27 14:37:02;;;;;;;;;;;;;;;5.32;95.54;97593.41;5077468;28;19993;-72
2022/12/27 14:39:47;;;;;;;;;;;;;;;5.28;95.83;97582.50;5059300;28;19953;-73
2022/12/27 14:42:15;;;;;;;;;;;;;;;5.26;96.39;97592.25;5077568;28;20328;-73
2022/12/27 14:44:57;;;;;;;;;;;;;;;5.23;96.99;97588.16;5077585;28;19949;-73
2022/12/27 14:47:39;;;;;;;;;;;;;;;5.20;97.01;97588.47;5077312;28;20327;-74
2022/12/27 14:50:05;;;;;;;;;;;;;;;5.17;96.83;97593.19;5064192;28;20316;-73